Time;durP1;ratioP1;P1;durP2;ratioP2;P2;SDS_P1;SDS_P2;PMS_P1;PMS_P2;Temp;Humidity;BMP_temperature;BMP_pressure;BME280_temperature;BME280_humidity;BME280_pressure;Samples;Min_cycle;Max_cycle;Signal;HPM_P1;HPM_P2
2022/06/06 00:01:43;;;;;;;;;10.33;10.33;;;;;18.03;100.00;101355.41;5059774;28;46665;-84
2022/06/06 00:04:10;;;;;;;;;6.67;6.67;;;;;18.05;100.00;101348.50;5063597;28;45535;-84
2022/06/06 00:06:39;;;;;;;;;10.33;7.67;;;;;17.87;100.00;101309.78;5054095;28;45501;-84
2022/06/06 00:09:05;;;;;;;;;9.67;7.00;;;;;18.01;100.00;101336.22;5061777;28;45606;-82
2022/06/06 00:11:32;;;;;;;;;8.00;7.00;;;;;17.97;100.00;101344.16;5041750;28;47300;-83
2022/06/06 00:13:57;;;;;;;;;5.33;4.67;;;;;17.88;100.00;101336.44;5040047;28;45374;-84
2022/06/06 00:16:23;;;;;;;;;6.33;5.00;;;;;17.88;100.00;101342.84;5053541;28;45910;-82
2022/06/06 00:18:48;;;;;;;;;9.33;7.67;;;;;17.83;100.00;101346.34;5037800;28;45640;-84
2022/06/06 00:21:14;;;;;;;;;12.67;10.00;;;;;17.78;100.00;101342.59;5056622;28;45438;-84
2022/06/06 00:23:41;;;;;;;;;11.00;5.00;;;;;17.61;100.00;101321.13;5041008;28;45727;-82
2022/06/06 00:26:08;;;;;;;;;9.67;5.67;;;;;17.67;100.00;101335.16;5062042;28;45808;-83
2022/06/06 00:28:35;;;;;;;;;6.00;6.00;;;;;17.69;100.00;101344.06;5049605;28;46394;-82
2022/06/06 00:34:48;;;;;;;;;6.00;5.33;;;;;17.52;100.00;101316.22;5061273;28;47100;-82
2022/06/06 00:36:35;;;;;;;;;5.67;5.67;;;;;17.42;100.00;101308.47;5067039;28;45245;-83
2022/06/06 00:39:03;;;;;;;;;6.67;6.33;;;;;17.53;100.00;101328.97;5067754;28;45762;-83
2022/06/06 00:41:29;;;;;;;;;5.00;5.00;;;;;17.49;100.00;101328.63;5067562;28;45174;-80
2022/06/06 00:44:06;;;;;;;;;6.33;6.33;;;;;17.44;100.00;101317.41;5065558;28;45781;-82
2022/06/06 00:46:36;;;;;;;;;6.00;5.00;;;;;17.16;100.00;101280.16;5047972;28;44827;-82
2022/06/06 00:49:05;;;;;;;;;3.67;3.67;;;;;17.32;100.00;101316.56;5065454;28;44819;-84
2022/06/06 00:51:31;;;;;;;;;3.67;3.00;;;;;17.19;100.00;101295.47;5042765;28;47300;-83
2022/06/06 00:53:57;;;;;;;;;6.00;4.67;;;;;17.29;100.00;101309.59;5062458;28;45387;-83
2022/06/06 00:56:39;;;;;;;;;6.00;6.00;;;;;17.31;100.00;101321.25;5044633;28;45399;-83
2022/06/06 00:59:23;;;;;;;;;6.00;5.67;;;;;17.35;100.00;101311.38;5039856;28;45978;-84
2022/06/06 01:01:49;;;;;;;;;8.33;8.33;;;;;17.11;100.00;101264.25;5053999;28;46168;-85
2022/06/06 01:04:16;;;;;;;;;7.67;6.67;;;;;17.15;100.00;101266.53;5060075;28;45590;-82
2022/06/06 01:06:45;;;;;;;;;7.00;5.00;;;;;17.27;100.00;101282.06;5041829;28;45485;-81
2022/06/06 01:09:12;;;;;;;;;4.67;4.67;;;;;17.44;100.00;101303.53;5041383;28;46207;-83
2022/06/06 01:11:42;;;;;;;;;6.33;5.33;;;;;17.45;100.00;101308.00;5056329;28;48388;-81
2022/06/06 01:14:12;;;;;;;;;5.67;5.67;;;;;17.46;100.00;101299.44;5036249;28;45425;-82
2022/06/06 01:16:53;;;;;;;;;6.00;5.00;;;;;17.49;100.00;101305.59;5038725;28;45465;-81
2022/06/06 01:19:42;;;;;;;;;8.00;7.00;;;;;17.47;100.00;101301.13;5055186;28;45419;-80
2022/06/06 01:22:47;;;;;;;;;4.00;4.00;;;;;17.41;100.00;101293.78;5053230;28;45439;-80
2022/06/06 01:25:15;;;;;;;;;8.00;5.67;;;;;17.49;100.00;101305.59;5048796;28;45450;-81
2022/06/06 01:28:07;;;;;;;;;8.67;7.00;;;;;17.47;100.00;101300.31;5055314;28;45892;-86
2022/06/06 01:30:41;;;;;;;;;7.33;5.33;;;;;17.24;100.00;101265.91;5055827;28;45532;-82
2022/06/06 01:33:12;;;;;;;;;7.67;6.00;;;;;17.44;100.00;101303.53;5056434;28;45487;-81
2022/06/06 01:35:40;;;;;;;;;8.00;7.00;;;;;17.40;100.00;101296.81;5055675;28;45481;-82
2022/06/06 01:38:07;;;;;;;;;6.67;6.67;;;;;17.42;100.00;101302.94;5056091;28;45431;-82
2022/06/06 01:40:42;;;;;;;;;7.67;5.67;;;;;17.40;100.00;101296.81;5055204;28;45942;-82
2022/06/06 01:43:26;;;;;;;;;7.67;7.67;;;;;17.42;100.00;101311.25;5052926;28;45442;-82
2022/06/06 01:45:58;;;;;;;;;10.33;7.67;;;;;17.21;100.00;101274.72;5056377;28;45478;-83
2022/06/06 01:48:29;;;;;;;;;7.33;7.33;;;;;17.21;100.00;101271.13;5057586;28;45707;-83
2022/06/06 01:50:55;;;;;;;;;5.33;5.33;;;;;17.41;100.00;101310.44;5055574;28;45742;-82
2022/06/06 01:53:23;;;;;;;;;10.33;7.33;;;;;17.30;100.00;101286.31;5040980;28;47885;-80
2022/06/06 01:55:51;;;;;;;;;7.67;5.67;;;;;17.28;100.00;101288.47;5054681;28;45480;-83
2022/06/06 01:58:27;;;;;;;;;8.67;8.33;;;;;17.36;100.00;101301.97;5053277;28;45414;-82
2022/06/06 02:00:54;;;;;;;;;9.67;7.33;;;;;17.36;100.00;101301.13;5029913;28;45820;-84
2022/06/06 02:03:20;;;;;;;;;6.67;6.33;;;;;17.36;100.00;101303.91;5053233;28;45540;-83
2022/06/06 02:05:46;;;;;;;;;7.33;6.67;;;;;17.32;100.00;101299.91;5053582;28;45371;-82
2022/06/06 02:08:11;;;;;;;;;5.67;5.67;;;;;17.16;100.00;101274.63;5054492;28;45652;-84
2022/06/06 02:10:38;;;;;;;;;8.67;7.00;;;;;17.35;100.00;101294.75;5061070;28;45455;-83
2022/06/06 02:13:04;;;;;;;;;10.00;10.00;;;;;17.33;100.00;101291.34;5057700;28;45768;-85
2022/06/06 02:15:29;;;;;;;;;14.33;12.00;;;;;17.35;100.00;101291.97;5056339;28;45690;-82
2022/06/06 02:17:56;;;;;;;;;4.00;4.00;;;;;17.34;100.00;101281.13;5055257;28;45584;-81
2022/06/06 02:20:25;;;;;;;;;7.67;6.67;;;;;17.33;100.00;101271.94;5051393;28;45803;-78
2022/06/06 02:22:51;;;;;;;;;7.00;7.00;;;;;17.33;100.00;101285.81;5051659;28;46125;-79
2022/06/06 02:25:17;;;;;;;;;9.33;7.33;;;;;17.25;100.00;101277.88;5051050;28;45368;-79
2022/06/06 02:27:43;;;;;;;;;8.00;6.33;;;;;17.24;100.00;101287.25;5052202;28;45724;-79
2022/06/06 02:30:19;;;;;;;;;7.00;6.00;;;;;17.10;100.00;101284.72;5051093;28;45817;-79
2022/06/06 02:32:44;;;;;;;;;6.67;6.67;;;;;17.13;100.00;101290.88;5051592;28;45456;-79
2022/06/06 02:35:16;;;;;;;;;6.67;6.67;;;;;17.00;100.00;101276.16;5051758;28;45367;-79
2022/06/06 02:37:42;;;;;;;;;6.33;6.33;;;;;16.74;100.00;101245.00;5050561;28;45786;-78
2022/06/06 02:40:10;;;;;;;;;8.67;8.67;;;;;16.97;100.00;101287.72;5053120;28;45441;-82
2022/06/06 02:42:37;;;;;;;;;7.67;4.67;;;;;16.95;100.00;101289.88;5053204;28;46237;-79
2022/06/06 02:45:04;;;;;;;;;6.67;6.00;;;;;16.92;100.00;101295.91;5052694;28;45519;-78
2022/06/06 02:47:30;;;;;;;;;8.67;8.00;;;;;16.75;100.00;101279.94;5053319;28;45857;-82
2022/06/06 02:49:55;;;;;;;;;5.33;4.00;;;;;16.87;100.00;101304.06;5049154;28;45628;-82
2022/06/06 02:52:21;;;;;;;;;4.33;4.00;;;;;16.85;100.00;101297.91;5049036;28;46181;-79
2022/06/06 02:54:47;;;;;;;;;7.33;5.33;;;;;16.84;100.00;101296.22;5052442;28;45417;-81
2022/06/06 02:57:13;;;;;;;;;5.33;5.33;;;;;16.80;100.00;101281.16;5053604;28;45442;-80
2022/06/06 02:59:43;;;;;;;;;6.33;5.00;;;;;16.32;100.00;101202.66;5052886;28;45588;-77
2022/06/06 03:02:09;;;;;;;;;8.00;7.00;;;;;16.33;100.00;101207.97;5052197;28;45787;-80
2022/06/06 03:04:37;;;;;;;;;4.00;3.00;;;;;16.70;100.00;101265.09;5054410;28;45599;-79
2022/06/06 03:07:15;;;;;;;;;5.00;4.00;;;;;16.67;100.00;101263.66;5053921;28;45499;-80
2022/06/06 03:10:07;;;;;;;;;3.00;3.00;;;;;16.34;100.00;101220.69;5052910;28;45908;-81
2022/06/06 03:12:51;;;;;;;;;6.67;5.33;;;;;16.55;100.00;101266.38;5053349;28;46758;-80
2022/06/06 03:21:53;;;;;;;;;3.67;3.67;;;;;16.42;100.00;101270.22;5056605;28;45388;-81
2022/06/06 03:24:33;;;;;;;;;4.67;4.00;;;;;16.39;100.00;101265.16;5050658;28;45450;-80
2022/06/06 03:26:59;;;;;;;;;5.67;5.67;;;;;16.37;100.00;101270.06;5053401;28;45845;-79
2022/06/06 03:29:31;;;;;;;;;3.67;3.67;;;;;16.34;100.00;101278.00;5058337;28;45407;-80
2022/06/06 03:32:31;;;;;;;;;6.33;6.33;;;;;16.21;100.00;101270.72;5057834;28;45416;-81
2022/06/06 03:35:06;;;;;;;;;6.67;4.00;;;;;16.12;100.00;101261.88;5054401;28;45335;-81
2022/06/06 03:37:47;;;;;;;;;6.00;6.00;;;;;15.98;100.00;101244.63;5059000;28;45788;-79
2022/06/06 03:40:46;;;;;;;;;4.33;3.33;;;;;16.21;100.00;101287.31;5038475;28;45426;-79
2022/06/06 03:43:14;;;;;;;;;5.00;5.00;;;;;16.22;100.00;101289.84;5050493;28;45848;-79
2022/06/06 03:45:43;;;;;;;;;6.00;4.00;;;;;16.22;100.00;101292.63;5056110;28;45629;-80
2022/06/06 03:48:34;;;;;;;;;6.33;6.33;;;;;16.26;100.00;101294.91;5049817;28;45823;-80
2022/06/06 03:51:02;;;;;;;;;9.67;8.00;;;;;16.31;100.00;101289.53;5052687;28;45722;-79
2022/06/06 03:53:34;;;;;;;;;6.33;5.67;;;;;16.35;100.00;101291.59;5057226;28;45588;-80
2022/06/06 03:56:08;;;;;;;;;9.67;6.67;;;;;16.40;100.00;101288.97;5039151;28;47566;-78
2022/06/06 03:58:34;;;;;;;;;4.33;4.00;;;;;16.45;100.00;101301.25;5046545;28;45775;-81
2022/06/06 04:01:04;;;;;;;;;6.33;6.33;;;;;16.49;100.00;101294.19;5038011;28;45487;-80
2022/06/06 04:03:32;;;;;;;;;5.00;5.00;;;;;16.53;100.00;101300.94;5053976;28;45363;-80
2022/06/06 04:06:01;;;;;;;;;4.67;4.67;;;;;16.54;100.00;101288.78;5055685;28;46885;-82
2022/06/06 04:08:27;;;;;;;;;5.67;5.33;;;;;16.37;100.00;101258.16;5043602;28;45561;-78
2022/06/06 04:11:02;;;;;;;;;7.67;4.00;;;;;16.70;100.00;101307.50;5054259;28;45699;-81
2022/06/06 04:13:27;;;;;;;;;6.00;4.00;;;;;16.77;100.00;101294.38;5037805;28;46383;-80
2022/06/06 04:16:18;;;;;;;;;9.00;6.33;;;;;16.82;100.00;101301.16;5036787;28;47253;-80
2022/06/06 04:19:12;;;;;;;;;6.00;6.00;;;;;16.88;100.00;101300.22;5048540;28;45530;-79
2022/06/06 04:21:49;;;;;;;;;8.00;5.00;;;;;16.92;100.00;101291.19;5051894;28;45510;-78
2022/06/06 04:24:34;;;;;;;;;4.33;4.00;;;;;16.98;100.00;101305.19;5031761;28;45806;-80
2022/06/06 04:27:14;;;;;;;;;5.00;4.00;;;;;17.02;100.00;101307.25;5051358;28;46291;-78
2022/06/06 04:30:01;;;;;;;;;3.67;2.67;;;;;16.99;100.00;101296.66;5050592;28;45403;-79
2022/06/06 04:33:02;;;;;;;;;3.00;3.00;;;;;17.17;100.00;101300.38;5051650;28;45970;-81
2022/06/06 04:36:08;;;;;;;;;6.33;6.33;;;;;17.26;100.00;101302.59;5034083;28;46130;-78
2022/06/06 04:38:47;;;;;;;;;4.00;4.00;;;;;17.36;100.00;101290.03;5034499;28;46394;-79
2022/06/06 04:41:42;;;;;;;;;5.67;4.00;;;;;17.44;100.00;101296.06;5050215;28;45714;-78
2022/06/06 04:44:15;;;;;;;;;5.00;3.00;;;;;17.51;100.00;101292.34;5052947;28;45782;-80
2022/06/06 04:47:16;;;;;;;;;4.00;4.00;;;;;17.54;100.00;101286.31;5053692;28;45395;-79
2022/06/06 04:49:43;;;;;;;;;6.00;6.00;;;;;17.68;100.00;101282.19;5051080;28;47084;-78
2022/06/06 04:52:09;;;;;;;;;5.33;5.33;;;;;17.83;100.00;101279.75;5054058;28;45852;-79
2022/06/06 04:54:39;;;;;;;;;3.00;3.00;;;;;18.02;100.00;101279.59;5031320;28;45396;-79
2022/06/06 04:57:06;;;;;;;;;5.00;5.00;;;;;17.94;100.00;101253.09;5053968;28;45461;-80
2022/06/06 04:59:33;;;;;;;;;4.00;2.67;;;;;18.27;100.00;101273.72;5053441;28;46037;-79
2022/06/06 05:01:59;;;;;;;;;5.00;3.67;;;;;18.43;100.00;101283.22;5032210;28;45465;-80
2022/06/06 05:04:25;;;;;;;;;3.00;3.00;;;;;18.49;100.00;101265.53;5052090;28;45852;-80
2022/06/06 05:06:56;;;;;;;;;3.00;3.00;;;;;18.69;100.00;101270.63;5051874;28;45793;-79
2022/06/06 05:09:52;;;;;;;;;3.33;3.33;;;;;18.67;100.00;101252.53;5051012;28;45726;-79
2022/06/06 05:12:47;;;;;;;;;3.33;3.33;;;;;18.93;100.00;101273.28;5051974;28;46606;-78
2022/06/06 05:15:37;;;;;;;;;4.00;4.00;;;;;19.07;100.00;101276.56;5050829;28;45507;-79
2022/06/06 05:18:27;;;;;;;;;3.33;1.67;;;;;19.02;100.00;101263.44;5049573;28;46601;-79
2022/06/06 05:21:14;;;;;;;;;2.33;1.67;;;;;19.02;100.00;101265.38;5049274;28;46194;-78
2022/06/06 05:24:11;;;;;;;;;2.33;2.33;;;;;19.04;100.00;101269.59;5049146;28;45802;-78
2022/06/06 05:27:34;;;;;;;;;1.33;1.33;;;;;20.15;100.00;101261.44;5050020;28;45569;-79
2022/06/06 05:30:10;;;;;;;;;2.00;2.00;;;;;22.20;100.00;101253.78;5008850;28;45443;-80
2022/06/06 05:32:45;;;;;;;;;1.00;0.00;;;;;23.72;100.00;101249.59;5008160;28;46486;-76
2022/06/06 05:35:24;;;;;;;;;2.00;1.00;;;;;25.09;100.00;101248.25;5032252;28;45476;-76
2022/06/06 05:38:16;;;;;;;;;1.33;1.33;;;;;26.45;100.00;101224.69;5048679;28;45406;-77
2022/06/06 05:40:55;;;;;;;;;3.00;1.00;;;;;27.87;100.00;101235.69;5042603;28;45956;-78
2022/06/06 05:43:52;;;;;;;;;2.00;1.00;;;;;29.05;100.00;101237.78;5047251;28;45917;-80
2022/06/06 05:46:39;;;;;;;;;1.00;1.00;;;;;30.19;95.31;101224.94;5045840;28;45573;-77
2022/06/06 05:49:31;;;;;;;;;0.75;0.75;;;;;31.05;88.28;101224.44;5046810;28;45931;-79
2022/06/06 05:52:16;;;;;;;;;1.75;0.00;;;;;32.08;81.89;101235.69;5028250;28;45658;-80
2022/06/06 05:55:13;;;;;;;;;0.75;0.75;;;;;32.87;77.71;101237.94;5046994;28;45603;-80
2022/06/06 05:58:13;;;;;;;;;0.00;0.00;;;;;33.77;74.06;101238.25;5048347;28;45712;-80
2022/06/06 06:01:12;;;;;;;;;0.00;0.00;;;;;34.59;70.67;101222.13;5047586;28;45525;-81
2022/06/06 06:03:50;;;;;;;;;0.00;0.00;;;;;35.48;66.03;101249.47;5028745;28;45651;-78
2022/06/06 06:06:28;;;;;;;;;1.00;1.00;;;;;35.89;59.69;101252.13;5030389;28;46812;-80
2022/06/06 06:09:32;;;;;;;;;1.00;1.00;;;;;36.32;60.28;101247.47;5039100;28;45589;-80
2022/06/06 06:12:12;;;;;;;;;1.00;1.00;;;;;36.89;56.34;101225.00;5047763;28;46108;-77
2022/06/06 06:15:06;;;;;;;;;0.75;0.75;;;;;37.17;53.09;101234.47;5044747;28;45905;-82
2022/06/06 06:17:37;;;;;;;;;2.00;1.00;;;;;37.78;52.49;101244.19;4991490;28;46472;-76
2022/06/06 06:20:11;;;;;;;;;0.00;0.00;;;;;38.25;49.25;101242.03;5045312;28;45630;-80
2022/06/06 06:22:41;;;;;;;;;1.50;1.00;;;;;38.46;46.47;101255.81;5032279;28;45966;-76
2022/06/06 06:25:09;;;;;;;;;2.00;2.00;;;;;38.84;44.97;101251.81;5044525;28;45863;-79
2022/06/06 06:27:36;;;;;;;;;1.50;1.00;;;;;39.33;43.34;101249.91;5045058;28;46629;-77
2022/06/06 06:30:12;;;;;;;;;0.00;0.00;;;;;39.51;42.34;101255.81;5050381;28;45659;-85
2022/06/06 06:33:11;;;;;;;;;0.25;0.25;;;;;39.90;41.78;101255.31;5036249;28;45614;-82
2022/06/06 06:36:11;;;;;;;;;0.00;0.00;;;;;39.92;40.36;101211.03;5049173;28;45517;-82
2022/06/06 06:39:23;;;;;;;;;2.00;1.00;;;;;40.65;40.06;101268.53;5049108;28;45851;-81
2022/06/06 06:42:26;;;;;;;;;0.00;0.00;;;;;41.21;37.11;101269.13;5034960;28;45921;-81
2022/06/06 06:45:07;;;;;;;;;0.00;0.00;;;;;41.26;35.38;101208.28;5030951;28;45605;-82
2022/06/06 06:47:44;;;;;;;;;0.00;0.00;;;;;42.16;33.02;101270.84;5028532;28;45844;-83
2022/06/06 06:50:33;;;;;;;;;1.00;1.00;;;;;42.48;32.75;101267.00;5046340;28;45961;-82
2022/06/06 06:53:07;;;;;;;;;0.50;0.50;;;;;42.68;31.67;101250.88;5047666;28;45965;-83
2022/06/06 06:55:36;;;;;;;;;0.00;0.00;;;;;43.18;30.25;101266.28;5053500;28;45609;-82
2022/06/06 06:58:08;;;;;;;;;0.75;0.00;;;;;43.35;29.69;101253.78;5058129;28;45517;-82
2022/06/06 07:01:15;;;;;;;;;1.00;1.00;;;;;43.33;29.67;101250.50;5039177;28;46433;-81
2022/06/06 07:10:11;;;;;;;;;0.00;0.00;;;;;44.86;27.02;101212.97;5055888;28;45729;-80
2022/06/06 07:12:43;;;;;;;;;0.00;0.00;;;;;45.64;26.25;101268.81;5052880;28;45760;-83
2022/06/06 07:15:36;;;;;;;;;0.00;0.00;;;;;45.22;25.79;101268.25;5051444;28;45885;-80
2022/06/06 07:18:07;;;;;;;;;1.00;1.00;;;;;45.59;24.74;101269.34;5052326;28;45459;-80
2022/06/06 07:20:38;;;;;;;;;0.00;0.00;;;;;46.06;23.81;101264.78;5054082;28;45650;-80
2022/06/06 07:23:15;;;;;;;;;0.00;0.00;;;;;46.45;24.10;101261.09;5033144;28;45525;-80
2022/06/06 07:25:43;;;;;;;;;0.00;0.00;;;;;46.72;23.16;101257.22;5034804;28;46058;-81
2022/06/06 07:28:15;;;;;;;;;0.00;0.00;;;;;47.22;22.98;101249.44;5034089;28;45774;-84
2022/06/06 07:30:57;;;;;;;;;0.00;0.00;;;;;47.71;22.03;101255.28;5049553;28;46182;-79
2022/06/06 07:33:35;;;;;;;;;0.00;0.00;;;;;48.33;20.81;101257.34;5052708;28;45490;-83
2022/06/06 07:36:46;;;;;;;;;0.00;0.00;;;;;48.69;21.14;101249.63;5051889;28;45431;-80
2022/06/06 07:39:34;;;;;;;;;0.00;0.00;;;;;47.83;21.12;101253.72;5014094;28;45932;-82
2022/06/06 07:43:02;;;;;;;;;;;;;;;;;;;;;
2022/06/06 07:45:50;;;;;;;;;3.67;2.00;;;;;46.22;21.08;101172.09;5052158;28;76708;-80
2022/06/06 07:49:09;;;;;;;;;0.00;0.00;;;;;45.03;23.72;101249.50;5046231;28;45595;-81
2022/06/06 07:55:08;;;;;;;;;0.00;0.00;;;;;46.19;22.42;101248.41;5047667;28;46593;-80
2022/06/06 07:58:14;;;;;;;;;0.00;0.00;;;;;46.50;22.42;101240.28;5038712;28;45530;-81
2022/06/06 08:01:12;;;;;;;;;0.75;0.00;;;;;46.76;22.27;101246.38;5033210;28;45781;-82
2022/06/06 08:10:49;;;;;;;;;1.67;1.67;;;;;48.20;20.64;101242.75;4949218;28;45633;-81
2022/06/06 08:13:47;;;;;;;;;1.00;1.00;;;;;48.86;20.15;101251.19;4990669;28;45569;-81
2022/06/06 08:16:33;;;;;;;;;1.00;1.00;;;;;49.38;19.07;101242.44;5052981;28;45580;-82
2022/06/06 08:19:23;;;;;;;;;0.75;0.75;;;;;49.70;18.38;101231.78;5055636;28;45499;-84
2022/06/06 08:21:58;;;;;;;;;0.00;0.00;;;;;50.04;17.76;101195.13;5054292;28;45912;-83
2022/06/06 08:24:45;;;;;;;;;0.00;0.00;;;;;48.57;19.01;101164.75;5034705;28;45775;-81
2022/06/06 08:27:14;;;;;;;;;0.00;0.00;;;;;48.57;18.47;101167.66;5034624;28;45493;-81
2022/06/06 08:29:44;;;;;;;;;1.33;1.33;;;;;49.25;18.27;101225.78;5051523;28;45754;-84
2022/06/06 08:32:14;;;;;;;;;3.00;3.00;;;;;48.97;17.90;101206.34;5055702;28;46190;-84
2022/06/06 08:34:48;;;;;;;;;1.00;1.00;;;;;49.28;18.00;101229.88;5052888;28;45679;-82
2022/06/06 08:37:41;;;;;;;;;0.00;0.00;;;;;48.54;18.39;101217.22;5051967;28;45584;-81
2022/06/06 08:40:27;;;;;;;;;0.00;0.00;;;;;46.95;20.12;101217.72;5049480;28;45616;-80
2022/06/06 08:43:13;;;;;;;;;0.00;0.00;;;;;45.27;20.55;101218.50;5049293;28;46494;-78
2022/06/06 08:45:52;;;;;;;;;0.00;0.00;;;;;45.41;20.76;101222.41;5046506;28;45506;-79
2022/06/06 08:48:47;;;;;;;;;0.00;0.00;;;;;45.34;20.79;101223.38;5048243;28;45972;-83
2022/06/06 08:51:41;;;;;;;;;1.00;1.00;;;;;45.20;21.34;101201.28;5051359;28;46023;-87
2022/06/06 08:54:42;;;;;;;;;1.75;0.75;;;;;45.72;20.47;101217.34;5049530;28;45713;-86
2022/06/06 08:57:41;;;;;;;;;0.00;0.00;;;;;46.26;19.94;101203.91;5049126;28;45812;-80
2022/06/06 09:00:39;;;;;;;;;0.00;0.00;;;;;45.81;19.84;101208.94;5050303;28;45931;-81
2022/06/06 09:03:28;;;;;;;;;0.00;0.00;;;;;46.24;20.08;101209.34;5050231;28;45668;-83
2022/06/06 09:05:57;;;;;;;;;0.00;0.00;;;;;45.73;19.43;101215.28;4996893;28;47856;-83
2022/06/06 09:08:41;;;;;;;;;0.75;0.75;;;;;46.43;18.97;101191.09;5050344;28;46033;-88
2022/06/06 09:11:45;;;;;;;;;0.00;0.00;;;;;46.51;19.03;101215.78;5046831;28;46169;-84
2022/06/06 09:14:35;;;;;;;;;0.00;0.00;;;;;47.02;18.70;101217.56;5046110;28;45696;-84
2022/06/06 09:17:42;;;;;;;;;0.00;0.00;;;;;47.29;18.89;101219.41;5050450;28;45541;-85
2022/06/06 09:20:28;;;;;;;;;0.00;0.00;;;;;47.00;18.15;101199.81;5051441;28;45754;-84
2022/06/06 09:23:05;;;;;;;;;0.00;0.00;;;;;47.90;18.02;101218.63;5054311;28;45873;-86
2022/06/06 09:25:45;;;;;;;;;0.00;0.00;;;;;48.38;17.42;101212.31;5051420;28;45534;-85
2022/06/06 09:29:02;;;;;;;;;0.00;0.00;;;;;48.77;17.93;101214.00;5054939;28;45915;-86
2022/06/06 09:32:10;;;;;;;;;1.00;0.00;;;;;47.87;17.72;101213.75;5053913;28;45883;-84
2022/06/06 09:35:02;;;;;;;;;1.00;0.00;;;;;47.59;18.25;101205.78;5050824;28;45446;-86
2022/06/06 09:37:39;;;;;;;;;0.00;0.00;;;;;48.24;16.91;101166.97;5032484;28;46540;-80
2022/06/06 09:40:27;;;;;;;;;0.00;0.00;;;;;47.07;17.60;101208.31;5047847;28;47140;-80
2022/06/06 09:43:15;;;;;;;;;0.00;0.00;;;;;45.27;18.66;101218.50;5045254;28;45917;-82
2022/06/06 09:46:26;;;;;;;;;0.00;0.00;;;;;43.18;20.39;101212.25;5049195;28;45612;-80
2022/06/06 09:49:01;;;;;;;;;0.00;0.00;;;;;41.75;22.00;101200.06;5046414;28;45635;-81
2022/06/06 09:51:41;;;;;;;;;0.00;0.00;;;;;41.83;22.36;101195.13;5040586;28;46170;-82
2022/06/06 10:01:24;;;;;;;;;1.00;1.00;;;;;41.56;22.59;101186.91;5045241;28;46122;-78
2022/06/06 10:04:05;;;;;;;;;5.67;4.67;;;;;40.43;23.45;101201.47;5008124;28;45992;-79
2022/06/06 10:07:18;;;;;;;;;1.00;1.00;;;;;39.40;25.06;101174.53;5047099;28;45606;-79
2022/06/06 10:10:21;;;;;;;;;2.50;2.50;;;;;39.63;25.69;101200.16;5046505;28;45550;-80
2022/06/06 10:12:46;;;;;;;;;0.00;0.00;;;;;38.69;25.88;101198.41;5043553;28;48047;-79
2022/06/06 10:15:38;;;;;;;;;0.25;0.25;;;;;37.64;26.91;101201.81;5047171;28;45863;-81
2022/06/06 10:18:25;;;;;;;;;0.50;0.25;;;;;37.52;28.59;101199.13;5034127;28;46250;-82
2022/06/06 10:20:56;;;;;;;;;0.00;0.00;;;;;37.78;28.55;101204.09;5045856;28;45887;-84
2022/06/06 10:23:50;;;;;;;;;0.00;0.00;;;;;37.12;29.31;101204.16;5049839;28;45577;-77
2022/06/06 10:26:28;;;;;;;;;0.00;0.00;;;;;36.39;30.43;101206.78;5045731;28;46672;-78
2022/06/06 10:32:44;;;;;;;;;2.50;1.25;;;;;34.70;34.57;101213.88;5042938;28;45697;-80
2022/06/06 10:35:22;;;;;;;;;0.00;0.00;;;;;33.92;35.87;101211.09;5046250;28;45647;-81
2022/06/06 10:37:59;;;;;;;;;1.00;1.00;;;;;33.82;37.83;101209.59;5041794;28;46325;-79
2022/06/06 10:40:46;;;;;;;;;0.00;0.00;;;;;33.87;38.63;101211.38;5053714;28;45705;-89
2022/06/06 10:43:28;;;;;;;;;0.00;0.00;;;;;33.31;39.87;101211.91;5032063;28;45454;-78
2022/06/06 10:46:21;;;;;;;;;0.00;0.00;;;;;34.51;38.62;101149.88;5050601;28;45520;-73
2022/06/06 10:49:06;;;;;;;;;0.00;0.00;;;;;36.89;35.12;101212.75;5033259;28;45478;-76
2022/06/06 10:51:53;;;;;;;;;0.00;0.00;;;;;38.48;30.63;101204.69;5050706;28;45901;-79
2022/06/06 10:54:43;;;;;;;;;0.00;0.00;;;;;38.67;29.46;101203.69;5053386;28;45474;-87
2022/06/06 10:57:31;;;;;;;;;0.00;0.00;;;;;37.90;30.05;101197.31;5033766;28;45765;-84
2022/06/06 11:00:03;;;;;;;;;0.00;0.00;;;;;37.62;28.80;101192.75;5041919;28;47137;-82
2022/06/06 11:02:47;;;;;;;;;0.00;0.00;;;;;38.85;28.35;101196.13;5047713;28;45622;-77
2022/06/06 11:05:34;;;;;;;;;0.00;0.00;;;;;39.98;26.71;101195.06;5026968;28;45377;-77
2022/06/06 11:08:24;;;;;;;;;0.00;0.00;;;;;40.78;26.61;101194.19;5049502;28;45540;-76
2022/06/06 11:11:22;;;;;;;;;0.75;0.00;;;;;39.41;25.79;101184.78;5045444;28;46827;-75
2022/06/06 11:14:06;;;;;;;;;0.00;0.00;;;;;38.24;28.25;101185.97;5031673;28;45876;-77
2022/06/06 11:17:03;;;;;;;;;1.00;0.00;;;;;38.40;29.54;101180.84;5053331;28;45873;-83
2022/06/06 11:20:07;;;;;;;;;0.00;0.00;;;;;38.61;29.01;101190.91;5050644;28;45462;-85
2022/06/06 11:22:43;;;;;;;;;0.75;0.75;;;;;38.35;28.80;101192.63;5033416;28;46207;-76
2022/06/06 11:25:27;;;;;;;;;0.00;0.00;;;;;37.77;29.41;101177.50;5032309;28;45978;-82
2022/06/06 11:28:36;;;;;;;;;2.00;0.00;;;;;37.20;29.72;101180.19;5050248;28;45379;-74
2022/06/06 11:31:02;;;;;;;;;0.00;0.00;;;;;36.25;31.38;101180.75;5051437;28;45845;-82
2022/06/06 11:33:27;;;;;;;;;0.00;0.00;;;;;35.18;34.25;101183.44;5036743;28;47588;-83
2022/06/06 11:36:01;;;;;;;;;0.25;0.00;;;;;34.66;35.05;101185.28;5034579;28;46139;-85
2022/06/06 11:38:51;;;;;;;;;0.00;0.00;;;;;34.14;37.01;101187.81;5048123;28;45676;-80
2022/06/06 11:41:38;;;;;;;;;0.50;0.50;;;;;33.40;38.17;101182.19;5053704;28;45825;-83
2022/06/06 11:44:14;;;;;;;;;7.33;6.00;;;;;33.02;41.29;101185.28;5027602;28;48433;-79
2022/06/06 11:47:04;;;;;;;;;5.00;4.00;;;;;32.61;41.07;101179.34;5035814;28;45474;-83
2022/06/06 11:49:29;;;;;;;;;1.50;1.50;;;;;32.11;43.14;101186.81;5053150;28;45405;-85
2022/06/06 11:52:42;;;;;;;;;1.00;0.50;;;;;31.84;45.53;101196.63;5055752;28;45751;-83
2022/06/06 11:55:29;;;;;;;;;0.00;0.00;;;;;31.61;46.67;101193.28;5038196;28;47182;-84
2022/06/06 11:58:16;;;;;;;;;0.25;0.25;;;;;31.32;46.69;101195.69;5055895;28;45688;-85
2022/06/06 12:00:55;;;;;;;;;0.00;0.00;;;;;31.05;48.09;101193.28;5054102;28;45486;-80
2022/06/06 12:03:46;;;;;;;;;0.00;0.00;;;;;30.81;49.23;101189.81;5027181;28;46124;-80
2022/06/06 12:06:12;;;;;;;;;0.50;0.50;;;;;30.62;51.06;101181.69;5052834;28;45802;-83
2022/06/06 12:09:16;;;;;;;;;0.75;0.25;;;;;30.37;51.46;101183.34;5050959;28;45436;-81
2022/06/06 12:12:03;;;;;;;;;0.00;0.00;;;;;30.15;52.45;101175.88;5034916;28;45566;-82
2022/06/06 12:15:03;;;;;;;;;0.00;0.00;;;;;29.97;54.45;101165.69;5032722;28;45553;-86
2022/06/06 12:17:51;;;;;;;;;1.00;0.00;;;;;29.85;55.12;101164.34;5055394;28;46336;-82
2022/06/06 12:20:35;;;;;;;;;0.00;0.00;;;;;29.76;56.22;101166.28;5043018;28;45372;-87
2022/06/06 12:23:33;;;;;;;;;1.00;1.00;;;;;29.52;56.17;101163.88;5052226;28;45442;-78
2022/06/06 12:26:27;;;;;;;;;0.75;0.00;;;;;29.36;56.32;101175.66;5053618;28;45751;-83
2022/06/06 12:29:02;;;;;;;;;0.00;0.00;;;;;28.92;56.31;101126.56;5040889;28;45807;-81
2022/06/06 12:31:52;;;;;;;;;0.00;0.00;;;;;29.14;57.52;101170.03;5055006;28;45782;-82
2022/06/06 12:34:24;;;;;;;;;0.00;0.00;;;;;29.20;58.39;101157.44;5048191;28;45756;-79
2022/06/06 12:37:01;;;;;;;;;0.67;0.67;;;;;29.31;59.11;101150.38;5048890;28;46279;-80
2022/06/06 12:39:44;;;;;;;;;2.00;0.50;;;;;29.36;58.55;101160.69;5049279;28;45484;-82
2022/06/06 12:42:30;;;;;;;;;0.00;0.00;;;;;29.30;59.22;101154.34;5051851;28;45849;-80
2022/06/06 12:45:37;;;;;;;;;0.00;0.00;;;;;29.04;58.34;101143.75;5014059;28;46494;-78
2022/06/06 12:48:25;;;;;;;;;0.00;0.00;;;;;29.18;60.02;101152.13;5059752;28;45608;-83
2022/06/06 12:50:57;;;;;;;;;0.00;0.00;;;;;29.20;58.57;101148.97;5057254;28;45975;-88
2022/06/06 12:53:34;;;;;;;;;0.00;0.00;;;;;29.22;57.28;101147.53;5060256;28;45541;-83
2022/06/06 12:56:20;;;;;;;;;0.00;0.00;;;;;29.06;56.72;101113.19;5058136;28;45644;-87
2022/06/06 12:59:17;;;;;;;;;0.50;0.00;;;;;29.28;54.98;101145.34;5050818;28;45781;-82
2022/06/06 13:02:00;;;;;;;;;0.00;0.00;;;;;28.67;53.46;101069.66;5034130;28;46684;-82